• Join FlightAware (Why Join?)
  • Login
  • US Flag 
11:50PM EDT


 

Airport Tracker/Info


-or-


 

Live Flight TrackerFlight Track Log ✈ TAM3445 ✈ 20-Oct-2013 ✈ SBBR / BSB - SBGL / GIG

Flight Track Log - Related Links

Times and Time Zones

All times are in EDT time to prevent confusion due to time zone crossing. See the TAM3445 flight status page for this flight to view local times or setup timezone preferences in your user account.

Time Position Orientation Groundspeed Altitude Reporting Facility
EDT Latitude Longitude Course Direction KTS MPH feet Rate Location/Type
08:42PM -17.6633 -46.7463 148° Southeast  Level Estimated
08:43PM -17.7162 -46.7117 148° Southeast  Level Estimated
08:44PM -17.7691 -46.6770 148° Southeast  Level Estimated
08:45PM -17.8219 -46.6423 148° Southeast  Level Estimated
08:46PM -17.8748 -46.6076 148° Southeast  Level Estimated
08:47PM -17.9276 -46.5728 148° Southeast  Level Estimated
08:48PM -17.9804 -46.5381 148° Southeast  Level Estimated
08:49PM -18.0333 -46.5033 148° Southeast  Level Estimated
08:50PM -18.0861 -46.4685 148° Southeast  Level Estimated
08:51PM -18.1389 -46.4337 148° Southeast  Level Estimated
08:52PM -18.1917 -46.3989 148° Southeast  Level Estimated
08:53PM -18.2445 -46.3641 148° Southeast  Level Estimated
08:54PM -18.2973 -46.3292 148° Southeast  Level Estimated
08:55PM -18.3941 -46.2652 148° Southeast  Level Estimated
08:56PM -18.4908 -46.2011 148° Southeast  Level Estimated
08:57PM -18.5875 -46.1370 148° Southeast  Level Estimated
08:58PM -18.6842 -46.0728 148° Southeast  Level Estimated
08:59PM -18.7809 -46.0085 148° Southeast  Level Estimated
09:00PM -18.8776 -45.9441 148° Southeast  Level Estimated
09:01PM -18.9742 -45.8797 148° Southeast  Level Estimated
09:02PM -19.0709 -45.8152 148° Southeast  Level Estimated
09:03PM -19.1674 -45.7506 148° Southeast  Level Estimated
09:04PM -19.2640 -45.6859 148° Southeast  Level Estimated
09:05PM -19.3606 -45.6212 148° Southeast  Level Estimated
09:06PM -19.4571 -45.5564 148° Southeast  Level Estimated
09:07PM -19.5536 -45.4915 148° Southeast  Level Estimated
09:08PM -19.6501 -45.4265 148° Southeast  Level Estimated
09:09PM -19.7465 -45.3615 148° Southeast  Level Estimated
09:10PM -19.8430 -45.2964 148° Southeast  Level Estimated
09:11PM -19.9394 -45.2312 148° Southeast  Level Estimated
09:12PM -20.0358 -45.1659 148° Southeast  Level Estimated
09:13PM -20.1322 -45.1005 148° Southeast  Level Estimated
09:14PM -20.2285 -45.0351 147° Southeast  Level Estimated
09:15PM -20.3248 -44.9696 147° Southeast  Level Estimated
09:16PM -20.4211 -44.9040 147° Southeast  Level Estimated
09:17PM -20.5174 -44.8383 147° Southeast  Level Estimated
09:18PM -20.6136 -44.7725 147° Southeast  Level Estimated
09:19PM -20.7098 -44.7067 147° Southeast  Level Estimated
09:20PM -20.8060 -44.6407 147° Southeast  Level Estimated
09:21PM -20.9022 -44.5747 147° Southeast  Level Estimated
09:22PM -20.9983 -44.5086 147° Southeast  Level Estimated
09:23PM -21.0944 -44.4424 147° Southeast  Level Estimated
09:24PM -21.1905 -44.3761 147° Southeast  Level Estimated
09:25PM -21.2866 -44.3098 147° Southeast  Level Estimated
09:26PM -21.3826 -44.2433 147° Southeast  Level Estimated
09:27PM -21.4786 -44.1768 147° Southeast  Level Estimated
09:28PM -21.5746 -44.1101 147° Southeast  Level Estimated
09:29PM -21.6706 -44.0434 147° Southeast  Level Estimated
09:30PM -21.7665 -43.9766 147° Southeast  Level Estimated
09:31PM -21.8624 -43.9098 147° Southeast  Level Estimated
09:32PM -21.9583 -43.8428 147° Southeast  Level Estimated
09:33PM -22.0542 -43.7757 147° Southeast  Level Estimated
09:34PM -22.1500 -43.7085 147° Southeast  Level Estimated
09:35PM -22.2458 -43.6413 147° Southeast  Level Estimated
09:36PM -22.3416 -43.5739 147° Southeast  Level Estimated
09:37PM -22.4373 -43.5065 147° Southeast  Level Estimated
09:38PM -22.5330 -43.4390 147° Southeast  Level Estimated
09:39PM -22.6287 -43.3713 147° Southeast  Level Estimated